createdAt,value
2018-09-29T00:01:02.060Z,102566.12
2018-09-29T00:03:31.529Z,102568.14
2018-09-29T00:06:01.639Z,102566.25
2018-09-29T00:08:31.345Z,102573.78
2018-09-29T00:11:00.512Z,102572.53
2018-09-29T00:13:30.528Z,102518.86
2018-09-29T00:16:00.928Z,102561.86
2018-09-29T00:18:32.519Z,102560.26
2018-09-29T00:21:02.900Z,102553.20
2018-09-29T00:23:32.362Z,102553.67
2018-09-29T00:26:02.661Z,102567.09
2018-09-29T00:28:32.094Z,102565.52
2018-09-29T00:31:02.747Z,102565.52
2018-09-29T00:33:33.034Z,102560.73
2018-09-29T00:36:03.558Z,102570.84
2018-09-29T00:38:33.588Z,102567.23
2018-09-29T00:41:04.289Z,102573.30
2018-09-29T00:43:33.630Z,102574.25
2018-09-29T00:46:03.542Z,102577.00
2018-09-29T00:48:33.459Z,102567.88
2018-09-29T00:51:02.905Z,102572.70
2018-09-29T00:53:32.330Z,102575.97
2018-09-29T00:56:02.181Z,102572.44
2018-09-29T00:58:32.138Z,102569.69
2018-09-29T01:01:01.870Z,102566.55
2018-09-29T01:03:31.804Z,102555.40
2018-09-29T01:06:01.667Z,102561.69
2018-09-29T01:08:30.955Z,102566.10
2018-09-29T01:11:03.683Z,102566.95
2018-09-29T01:13:33.131Z,102559.83
2018-09-29T01:16:03.004Z,102559.55
2018-09-29T01:18:32.691Z,102556.55
2018-09-29T01:21:04.036Z,102556.25
2018-09-29T01:23:35.121Z,102557.67
2018-09-29T01:26:05.833Z,102553.51
2018-09-29T01:28:36.566Z,102548.92
2018-09-29T01:31:07.558Z,102547.02
2018-09-29T01:33:37.858Z,102551.59
2018-09-29T01:36:07.681Z,102550.17
2018-09-29T01:38:37.444Z,102551.59
2018-09-29T01:41:07.732Z,102553.12
2018-09-29T01:43:37.407Z,102548.25
2018-09-29T01:46:09.530Z,102547.34
2018-09-29T01:48:39.788Z,102545.54
2018-09-29T01:51:10.182Z,102544.20
2018-09-29T01:53:39.690Z,102548.89
2018-09-29T01:56:09.338Z,102552.13
2018-09-29T01:58:38.724Z,102548.52
2018-09-29T02:01:09.029Z,102546.53
2018-09-29T02:03:42.926Z,102539.96
2018-09-29T02:06:12.511Z,102540.73
2018-09-29T02:08:42.746Z,102540.30
2018-09-29T02:11:12.927Z,102543.89
2018-09-29T02:13:42.553Z,102548.15
2018-09-29T02:16:13.012Z,102543.81
2018-09-29T02:18:47.582Z,102551.41
2018-09-29T02:21:17.033Z,102550.02
2018-09-29T02:23:47.482Z,102557.08
2018-09-29T02:26:16.741Z,102555.55
2018-09-29T02:28:48.127Z,102554.52
2018-09-29T02:31:18.227Z,102553.41
2018-09-29T02:33:47.698Z,102550.89
2018-09-29T02:36:17.694Z,102553.41
2018-09-29T02:38:48.118Z,102548.41
2018-09-29T02:41:18.753Z,102539.23
2018-09-29T02:43:49.352Z,102545.02
2018-09-29T02:46:20.751Z,102544.83
2018-09-29T02:48:50.333Z,102539.74
2018-09-29T02:51:19.896Z,102547.08
2018-09-29T02:53:51.345Z,102553.92
2018-09-29T02:56:22.756Z,102553.06
2018-09-29T02:58:53.405Z,102551.99
2018-09-29T03:01:23.432Z,102545.55
2018-09-29T03:03:54.075Z,102548.69
2018-09-29T03:06:25.142Z,102545.97
2018-09-29T03:08:54.841Z,102548.34
2018-09-29T03:11:24.032Z,102553.06
2018-09-29T03:13:54.080Z,102551.17
2018-09-29T03:16:24.703Z,102546.31
2018-09-29T03:18:56.292Z,102548.17
2018-09-29T03:21:26.028Z,102543.39
2018-09-29T03:23:55.791Z,102549.06
2018-09-29T03:26:25.027Z,102549.09
2018-09-29T03:28:56.170Z,102561.48
2018-09-29T03:31:26.214Z,102555.99
2018-09-29T03:33:57.052Z,102550.47
2018-09-29T03:36:26.687Z,102544.08
2018-09-29T03:38:59.437Z,102552.30
2018-09-29T03:41:29.658Z,102553.34
2018-09-29T03:44:00.883Z,102546.69
2018-09-29T03:46:31.588Z,102546.30
2018-09-29T03:49:11.231Z,102544.11
2018-09-29T03:51:40.709Z,102537.25
2018-09-29T03:54:10.211Z,102537.89
2018-09-29T03:56:39.958Z,102540.39
2018-09-29T03:59:11.234Z,102536.95
2018-09-29T04:01:42.682Z,102538.50
2018-09-29T04:04:13.572Z,102535.33
2018-09-29T04:06:44.287Z,102535.82
2018-09-29T04:09:15.914Z,102533.72
2018-09-29T04:11:47.529Z,102529.34
2018-09-29T04:14:17.704Z,102534.34
2018-09-29T04:16:48.690Z,102532.45
2018-09-29T04:19:23.306Z,102543.64
2018-09-29T04:21:56.868Z,102539.41
2018-09-29T04:24:28.367Z,102536.25
2018-09-29T04:29:25.882Z,102548.66
2018-09-29T04:31:56.345Z,102543.13
2018-09-29T04:34:26.601Z,102540.56
2018-09-29T04:36:57.226Z,102544.91
2018-09-29T04:39:27.218Z,102546.36
2018-09-29T04:41:57.693Z,102549.69
2018-09-29T04:44:28.643Z,102543.98
2018-09-29T04:46:59.691Z,102545.31
2018-09-29T04:49:29.463Z,102542.06
2018-09-29T04:51:59.633Z,102539.64
2018-09-29T04:54:29.537Z,102543.62
2018-09-29T04:57:04.461Z,102548.76
2018-09-29T04:59:35.956Z,102553.10
2018-09-29T05:02:05.986Z,102555.42
2018-09-29T05:04:38.096Z,102556.67
2018-09-29T05:07:09.443Z,102559.32
2018-09-29T05:09:40.322Z,102562.20
2018-09-29T05:12:10.073Z,102565.53
2018-09-29T05:14:39.908Z,102565.22
2018-09-29T05:17:10.593Z,102562.14
2018-09-29T05:20:01.229Z,102565.20
2018-09-29T05:22:34.591Z,102564.63
2018-09-29T05:25:05.003Z,102562.62
2018-09-29T05:27:36.031Z,102563.48
2018-09-29T05:30:09.182Z,102566.47
2018-09-29T05:32:39.571Z,102560.83
2018-09-29T05:35:09.446Z,102566.47
2018-09-29T05:37:39.460Z,102560.70
2018-09-29T05:40:13.263Z,102570.38
2018-09-29T05:42:43.553Z,102567.96
2018-09-29T05:45:15.669Z,102571.64
2018-09-29T05:47:46.700Z,102577.81
2018-09-29T05:50:19.438Z,102565.77
2018-09-29T05:52:49.772Z,102571.58
2018-09-29T05:55:19.770Z,102570.19
2018-09-29T05:57:52.645Z,102565.94
2018-09-29T06:00:24.179Z,102570.78
2018-09-29T06:02:54.013Z,102571.41
2018-09-29T06:05:24.146Z,102565.17
2018-09-29T06:10:26.137Z,102576.11
2018-09-29T06:12:56.402Z,102570.55
2018-09-29T06:15:32.449Z,102572.52
2018-09-29T06:18:03.393Z,102578.70
2018-09-29T06:20:33.467Z,102575.41
2018-09-29T06:23:05.669Z,102583.61
2018-09-29T06:25:35.377Z,102580.88
2018-09-29T06:28:05.592Z,102576.48
2018-09-29T06:30:37.807Z,102581.03
2018-09-29T06:33:07.722Z,102589.28
2018-09-29T06:35:40.259Z,102585.34
2018-09-29T06:38:14.081Z,102580.34
2018-09-29T06:40:47.992Z,102584.16
2018-09-29T06:43:18.393Z,102581.14
2018-09-29T06:45:49.666Z,102578.17
2018-09-29T06:48:19.329Z,102581.25
2018-09-29T06:50:55.054Z,102583.17
2018-09-29T06:53:24.859Z,102585.55
2018-09-29T06:56:05.942Z,102586.52
2018-09-29T06:58:37.540Z,102582.52
2018-09-29T07:01:13.811Z,102578.00
2018-09-29T07:04:08.876Z,102581.34
2018-09-29T07:06:40.459Z,102578.12
2018-09-29T07:09:11.543Z,102580.19
2018-09-29T07:11:45.185Z,102585.91
2018-09-29T07:14:14.913Z,102583.47
2018-09-29T07:16:46.035Z,102588.73
2018-09-29T07:19:16.335Z,102590.00
2018-09-29T07:21:48.600Z,102586.16
2018-09-29T07:24:18.352Z,102585.62
2018-09-29T07:26:48.766Z,102582.08
2018-09-29T07:29:21.947Z,102588.39
2018-09-29T07:31:52.755Z,102587.07
2018-09-29T07:34:22.756Z,102588.63
2018-09-29T07:36:53.076Z,102583.38
2018-09-29T07:39:23.105Z,102588.41
2018-09-29T07:41:53.761Z,102597.58
2018-09-29T07:44:23.940Z,102593.06
2018-09-29T07:46:55.785Z,102594.89
2018-09-29T07:49:33.801Z,102586.69
2018-09-29T07:52:03.934Z,102585.71
2018-09-29T07:54:37.241Z,102588.30
2018-09-29T07:57:07.707Z,102597.14
2018-09-29T07:59:41.657Z,102584.16
2018-09-29T08:02:14.473Z,102583.57
2018-09-29T08:04:44.731Z,102585.84
2018-09-29T08:07:23.028Z,102407.09
2018-09-29T08:09:53.368Z,102582.91
2018-09-29T08:12:26.747Z,102588.16
2018-09-29T08:14:56.621Z,102584.81
2018-09-29T08:17:57.880Z,102587.45
2018-09-29T08:20:30.555Z,102584.91
2018-09-29T08:23:03.324Z,102581.00
2018-09-29T08:25:39.502Z,102589.20
2018-09-29T08:28:09.988Z,102590.03
2018-09-29T08:30:42.432Z,102583.58
2018-09-29T08:33:13.066Z,102580.70
2018-09-29T08:35:43.094Z,102588.53
2018-09-29T08:38:13.879Z,102581.14
2018-09-29T08:40:45.762Z,102575.32
2018-09-29T08:43:18.935Z,102585.98
2018-09-29T08:45:49.864Z,102586.28
2018-09-29T08:48:23.181Z,102589.92
2018-09-29T08:50:53.784Z,102582.91
2018-09-29T08:53:26.887Z,102586.08
2018-09-29T08:55:58.700Z,102572.77
2018-09-29T08:58:30.541Z,102577.37
2018-09-29T09:01:07.238Z,102574.61
2018-09-29T09:03:40.249Z,102570.41
2018-09-29T09:06:11.984Z,102562.05
2018-09-29T09:08:42.785Z,102564.19
2018-09-29T09:11:14.326Z,102564.20
2018-09-29T09:13:44.730Z,102561.02
2018-09-29T09:16:18.980Z,102553.40
2018-09-29T09:18:51.053Z,102554.31
2018-09-29T09:21:23.009Z,102553.55
2018-09-29T09:23:52.511Z,102553.23
2018-09-29T09:26:23.240Z,102549.66
2018-09-29T09:28:52.833Z,102553.24
2018-09-29T09:31:24.302Z,102548.72
2018-09-29T09:33:54.340Z,102541.09
2018-09-29T09:36:24.375Z,102552.64
2018-09-29T09:38:54.538Z,102541.23
2018-09-29T09:41:29.672Z,102542.25
2018-09-29T09:44:02.428Z,102534.80
2018-09-29T09:46:40.088Z,102526.45
2018-09-29T09:49:12.206Z,102518.59
2018-09-29T09:51:46.087Z,102512.55
2018-09-29T09:54:17.495Z,102517.63
2018-09-29T09:56:48.515Z,102516.52
2018-09-29T09:59:19.713Z,102512.41
2018-09-29T10:04:37.766Z,102505.94
2018-09-29T10:07:08.857Z,102499.00
2018-09-29T10:09:41.413Z,102500.69
2018-09-29T10:12:13.760Z,102500.53
2018-09-29T10:14:47.005Z,102495.55
2018-09-29T10:17:26.510Z,102487.92
2018-09-29T10:19:57.705Z,102479.45
2018-09-29T10:22:29.879Z,102484.61
2018-09-29T10:25:01.951Z,102470.87
2018-09-29T10:27:46.792Z,102471.14
2018-09-29T10:30:26.740Z,102468.98
2018-09-29T10:32:56.773Z,102467.86
2018-09-29T10:35:29.219Z,102460.68
2018-09-29T10:40:51.560Z,102442.20
2018-09-29T10:43:27.957Z,102452.31
2018-09-29T10:46:06.145Z,102446.45
2018-09-29T10:48:38.923Z,102444.40
2018-09-29T10:51:13.495Z,102447.20
2018-09-29T10:53:45.979Z,102437.22
2018-09-29T10:56:20.247Z,102433.23
2018-09-29T10:58:50.373Z,102438.03
2018-09-29T11:01:20.937Z,102432.16
2018-09-29T11:03:52.825Z,102433.00
2018-09-29T11:09:36.267Z,102427.77
2018-09-29T11:12:12.485Z,102428.30
2018-09-29T11:14:48.294Z,102419.84
2018-09-29T11:17:24.465Z,102412.71
2018-09-29T11:19:55.949Z,102419.33
2018-09-29T11:22:27.255Z,102410.31
2018-09-29T11:24:56.982Z,102413.70
2018-09-29T11:30:12.799Z,102393.96
2018-09-29T11:32:43.436Z,102394.90
2018-09-29T11:35:14.619Z,102391.75
2018-09-29T11:37:48.074Z,102386.48
2018-09-29T11:40:18.584Z,102379.30
2018-09-29T11:42:48.662Z,102372.29
2018-09-29T11:45:26.252Z,102368.78
2018-09-29T11:48:07.755Z,102365.64
2018-09-29T11:50:40.540Z,102362.67
2018-09-29T11:53:11.312Z,102348.59
2018-09-29T11:58:12.623Z,102336.20
2018-09-29T12:00:43.242Z,102328.39
2018-09-29T12:03:13.388Z,102324.95
2018-09-29T12:05:43.301Z,102310.94
2018-09-29T12:08:14.141Z,102274.05
2018-09-29T12:10:45.786Z,102309.08
2018-09-29T12:13:16.355Z,102308.89
2018-09-29T12:15:47.701Z,102305.72
2018-09-29T12:18:19.016Z,102298.25
2018-09-29T12:20:50.442Z,102306.30
2018-09-29T12:23:21.032Z,102298.25
2018-09-29T12:25:50.518Z,102092.05
2018-09-29T12:28:22.162Z,102289.00
2018-09-29T12:30:52.600Z,102288.55
2018-09-29T12:33:26.793Z,102284.57
2018-09-29T12:36:01.015Z,102281.23
2018-09-29T12:38:46.678Z,102280.28
2018-09-29T12:41:18.949Z,102272.03
2018-09-29T12:43:51.424Z,102269.80
2018-09-29T12:46:21.949Z,102273.17
2018-09-29T12:48:56.821Z,102265.39
2018-09-29T12:55:58.803Z,102256.53
2018-09-29T12:58:44.448Z,102254.46
2018-09-29T13:01:18.585Z,102250.67
2018-09-29T13:03:51.609Z,102241.58
2018-09-29T13:06:37.656Z,102233.46
2018-09-29T13:09:11.206Z,102231.06
2018-09-29T13:11:46.771Z,102226.34
2018-09-29T13:14:18.359Z,102216.08
2018-09-29T13:16:50.393Z,102208.23
2018-09-29T13:19:23.615Z,102211.58
2018-09-29T13:21:53.353Z,102207.59
2018-09-29T13:24:24.100Z,102204.29
2018-09-29T13:26:54.272Z,102190.50
2018-09-29T13:29:24.439Z,102196.23
2018-09-29T13:31:56.810Z,102194.58
2018-09-29T13:34:27.200Z,102187.10
2018-09-29T13:39:35.773Z,102189.06
2018-09-29T13:42:09.718Z,102184.90
2018-09-29T13:44:40.541Z,102176.27
2018-09-29T13:47:10.343Z,102169.50
2018-09-29T13:49:40.687Z,102166.46
2018-09-29T13:52:12.821Z,102167.47
2018-09-29T13:54:46.938Z,102167.12
2018-09-29T13:57:16.967Z,102161.09
2018-09-29T13:59:47.255Z,102155.48
2018-09-29T14:02:18.436Z,102142.25
2018-09-29T14:04:52.999Z,102137.49
2018-09-29T14:07:26.381Z,102133.62
2018-09-29T14:09:57.158Z,102133.17
2018-09-29T14:12:29.537Z,102131.91
2018-09-29T14:15:04.432Z,102127.89
2018-09-29T14:17:36.039Z,102120.48
2018-09-29T14:20:07.058Z,102114.56
2018-09-29T14:22:36.656Z,102116.70
2018-09-29T14:25:11.695Z,102109.19
2018-09-29T14:27:50.857Z,102109.94
2018-09-29T14:33:10.555Z,102093.02
2018-09-29T14:35:44.005Z,102088.77
2018-09-29T14:38:19.282Z,102090.28
2018-09-29T14:40:49.211Z,102083.33
2018-09-29T14:43:24.195Z,102082.37
2018-09-29T14:45:56.950Z,102084.74
2018-09-29T14:48:30.813Z,102073.56
2018-09-29T14:51:00.500Z,102068.73
2018-09-29T14:54:02.323Z,102070.27
2018-09-29T14:56:35.850Z,102063.06
2018-09-29T14:59:13.046Z,102013.00
2018-09-29T15:01:47.154Z,102050.09
2018-09-29T15:04:21.446Z,102046.75
2018-09-29T15:10:07.450Z,102039.38
2018-09-29T15:12:43.520Z,102036.67
2018-09-29T15:15:19.335Z,102038.53
2018-09-29T15:17:50.144Z,102032.39
2018-09-29T15:20:21.402Z,102031.89
2018-09-29T15:22:51.043Z,102031.34
2018-09-29T15:25:20.790Z,102024.60
2018-09-29T15:27:51.135Z,102023.98
2018-09-29T15:30:23.832Z,102030.05
2018-09-29T15:33:17.894Z,102021.38
2018-09-29T15:35:47.472Z,102024.64
2018-09-29T15:38:18.659Z,102019.13
2018-09-29T15:40:50.640Z,101974.61
2018-09-29T15:43:21.607Z,102014.45
2018-09-29T15:45:53.944Z,102009.70
2018-09-29T15:48:25.936Z,102007.95
2018-09-29T15:50:58.170Z,102005.63
2018-09-29T15:53:28.423Z,102011.23
2018-09-29T15:55:58.740Z,102003.24
2018-09-29T15:58:39.643Z,102002.28
2018-09-29T16:02:17.391Z,101995.31
2018-09-29T16:04:50.467Z,101993.23
2018-09-29T16:07:33.486Z,101987.89
2018-09-29T16:10:06.465Z,101979.31
2018-09-29T16:12:36.389Z,101984.55
2018-09-29T16:17:47.460Z,101976.89
2018-09-29T16:20:18.926Z,101971.42
2018-09-29T16:22:53.998Z,101970.55
2018-09-29T16:25:26.348Z,101968.09
2018-09-29T16:28:04.217Z,101907.03
2018-09-29T16:30:38.170Z,101954.81
2018-09-29T16:33:10.098Z,101957.27
2018-09-29T16:35:46.254Z,101961.05
2018-09-29T16:38:17.444Z,101953.20
2018-09-29T16:40:54.275Z,101958.83
2018-09-29T16:43:34.175Z,101956.72
2018-09-29T16:49:11.721Z,101948.41
2018-09-29T16:51:42.044Z,101944.77
2018-09-29T16:54:41.743Z,101943.53
2018-09-29T16:57:14.363Z,101943.16
2018-09-29T16:59:44.907Z,101945.82
2018-09-29T17:02:16.305Z,101944.62
2018-09-29T17:04:49.349Z,101948.52
2018-09-29T17:07:24.520Z,101946.10
2018-09-29T17:10:00.471Z,101947.73
2018-09-29T17:12:31.155Z,101902.01
2018-09-29T17:17:39.291Z,101936.43
2018-09-29T17:20:09.808Z,101940.38
2018-09-29T17:22:39.532Z,101939.58
2018-09-29T17:25:30.315Z,101938.59
2018-09-29T17:28:00.237Z,101937.97
2018-09-29T17:30:37.116Z,101941.19
2018-09-29T17:33:08.787Z,101944.87
2018-09-29T17:35:38.239Z,101937.73
2018-09-29T17:38:08.982Z,101935.59
2018-09-29T17:40:46.119Z,101931.05
2018-09-29T17:43:18.516Z,101925.86
2018-09-29T17:45:48.574Z,101933.25
2018-09-29T17:48:19.290Z,101928.47
2018-09-29T17:50:52.794Z,101925.56
2018-09-29T17:53:23.687Z,101928.83
2018-09-29T17:55:55.607Z,101928.02
2018-09-29T17:58:25.059Z,101924.70
2018-09-29T18:01:00.534Z,101924.46
2018-09-29T18:03:29.938Z,101921.44
2018-09-29T18:06:01.188Z,101924.29
2018-09-29T18:08:33.101Z,101924.78
2018-09-29T18:11:24.535Z,101928.28
2018-09-29T18:13:57.209Z,101921.15
2018-09-29T18:16:28.566Z,101922.85
2018-09-29T18:18:59.377Z,101925.05
2018-09-29T18:21:30.474Z,101914.09
2018-09-29T18:23:59.918Z,101916.64
2018-09-29T18:26:30.059Z,101917.47
2018-09-29T18:29:02.190Z,101918.22
2018-09-29T18:31:33.751Z,101919.77
2018-09-29T18:34:05.509Z,101919.70
2018-09-29T18:36:38.031Z,101925.01
2018-09-29T18:39:12.511Z,101922.31
2018-09-29T18:41:46.191Z,101923.00
2018-09-29T18:44:16.689Z,101927.58
2018-09-29T18:46:49.095Z,101922.22
2018-09-29T18:49:22.756Z,101919.53
2018-09-29T18:51:54.040Z,101919.47
2018-09-29T18:54:35.608Z,101922.14
2018-09-29T18:57:11.563Z,101916.96
2018-09-29T18:59:43.571Z,101914.44
2018-09-29T19:02:15.925Z,101915.91
2018-09-29T19:04:48.456Z,101904.98
2018-09-29T19:07:19.284Z,101914.70
2018-09-29T19:10:00.055Z,101912.38
2018-09-29T19:12:31.371Z,101913.59
2018-09-29T19:15:04.445Z,101903.25
2018-09-29T19:17:34.954Z,101903.44
2018-09-29T19:20:05.596Z,101896.78
2018-09-29T19:22:37.597Z,101897.38
2018-09-29T19:27:48.735Z,101901.78
2018-09-29T19:30:25.231Z,101906.38
2018-09-29T19:33:02.186Z,101812.94
2018-09-29T19:35:36.229Z,101903.67
2018-09-29T19:38:11.874Z,101905.38
2018-09-29T19:40:43.496Z,101900.50
2018-09-29T19:43:17.456Z,101895.95
2018-09-29T19:45:53.778Z,101891.05
2018-09-29T19:48:25.067Z,101890.83
2018-09-29T19:50:58.625Z,101887.50
2018-09-29T19:53:33.904Z,101884.46
2018-09-29T19:56:04.827Z,101888.23
2018-09-29T19:58:46.159Z,101885.88
2018-09-29T20:01:20.373Z,101882.95
2018-09-29T20:03:53.255Z,101881.00
2018-09-29T20:06:57.796Z,101538.32
2018-09-29T20:09:35.548Z,101884.41
2018-09-29T20:12:06.440Z,101878.36
2018-09-29T20:14:38.430Z,101878.26
2018-09-29T20:17:24.412Z,101877.86
2018-09-29T20:19:57.516Z,101881.06
2018-09-29T20:22:29.649Z,101877.13
2018-09-29T20:25:05.187Z,101878.22
2018-09-29T20:27:37.559Z,101868.80
2018-09-29T20:30:10.237Z,101867.20
2018-09-29T20:33:02.855Z,101862.67
2018-09-29T20:35:34.357Z,101865.96
2018-09-29T20:38:07.074Z,101864.87
2018-09-29T20:40:37.754Z,101859.27
2018-09-29T20:43:40.392Z,101860.34
2018-09-29T20:46:16.625Z,101858.57
2018-09-29T20:48:50.610Z,101861.97
2018-09-29T20:51:23.518Z,101858.94
2018-09-29T20:53:55.022Z,101851.36
2018-09-29T20:56:26.084Z,101853.19
2018-09-29T20:58:57.768Z,101849.05
2018-09-29T21:01:28.095Z,101847.18
2018-09-29T21:03:58.560Z,101847.59
2018-09-29T21:06:29.728Z,101844.41
2018-09-29T21:08:59.192Z,101841.27
2018-09-29T21:11:32.164Z,101838.59
2018-09-29T21:14:03.520Z,101830.48
2018-09-29T21:16:34.031Z,101824.09
2018-09-29T21:19:05.027Z,101820.08
2018-09-29T21:21:36.299Z,101811.66
2018-09-29T21:24:12.291Z,101811.20
2018-09-29T21:26:44.019Z,101810.83
2018-09-29T21:29:13.308Z,101803.31
2018-09-29T21:31:43.635Z,101802.58
2018-09-29T21:34:13.637Z,101801.41
2018-09-29T21:36:46.237Z,101795.33
2018-09-29T21:39:23.719Z,101798.27
2018-09-29T21:42:01.537Z,101785.05
2018-09-29T21:44:34.264Z,101787.02
2018-09-29T21:47:15.114Z,101775.87
2018-09-29T21:49:48.158Z,101781.58
2018-09-29T21:52:20.220Z,101780.86
2018-09-29T21:54:50.258Z,101776.59
2018-09-29T21:57:23.926Z,101778.18
2018-09-29T21:59:53.398Z,101778.03
2018-09-29T22:02:23.390Z,101774.19
2018-09-29T22:04:55.120Z,101775.41
2018-09-29T22:07:28.508Z,101777.70
2018-09-29T22:09:58.391Z,101775.16
2018-09-29T22:12:28.313Z,101765.94
2018-09-29T22:14:58.458Z,101760.59
2018-09-29T22:17:28.964Z,101764.98
2018-09-29T22:19:59.151Z,101759.80
2018-09-29T22:22:28.669Z,101757.62
2018-09-29T22:24:59.567Z,101766.95
2018-09-29T22:27:28.992Z,101764.16
2018-09-29T22:29:59.516Z,101760.27
2018-09-29T22:32:33.481Z,101760.05
2018-09-29T22:35:03.204Z,101707.23
2018-09-29T22:37:33.305Z,101757.86
2018-09-29T22:40:18.707Z,101747.40
2018-09-29T22:42:48.365Z,101750.44
2018-09-29T22:45:20.403Z,101747.51
2018-09-29T22:47:50.559Z,101736.34
2018-09-29T22:50:22.354Z,101732.86
2018-09-29T22:52:53.219Z,101739.28
2018-09-29T22:55:23.102Z,101732.86
2018-09-29T22:57:53.604Z,101725.44
2018-09-29T23:00:24.389Z,101731.86
2018-09-29T23:02:54.244Z,101735.27
2018-09-29T23:05:23.574Z,101733.45
2018-09-29T23:07:53.977Z,101742.80
2018-09-29T23:10:23.868Z,101741.46
2018-09-29T23:12:54.281Z,101734.67
2018-09-29T23:15:23.930Z,101729.70
2018-09-29T23:17:57.030Z,101733.71
2018-09-29T23:20:27.373Z,101730.89
2018-09-29T23:22:59.290Z,101735.05
2018-09-29T23:25:30.694Z,101734.05
2018-09-29T23:28:01.739Z,101731.16
2018-09-29T23:30:34.092Z,101733.56
2018-09-29T23:33:04.388Z,101734.67
2018-09-29T23:35:33.711Z,101732.48
2018-09-29T23:38:04.360Z,101735.27
2018-09-29T23:40:34.451Z,101727.25
2018-09-29T23:43:06.259Z,101729.44
2018-09-29T23:45:38.391Z,101733.20
2018-09-29T23:48:13.250Z,101728.34
2018-09-29T23:50:43.422Z,101731.10
2018-09-29T23:53:13.471Z,101721.42
2018-09-29T23:55:44.260Z,101726.11
2018-09-29T23:58:14.597Z,101733.65
